createdAt,value
2023-01-19T00:01:21.281Z,57.30
2023-01-19T00:06:26.086Z,57.30
2023-01-19T00:11:30.179Z,57.40
2023-01-19T00:16:34.501Z,57.70
2023-01-19T00:21:38.958Z,57.70
2023-01-19T00:26:43.412Z,57.60
2023-01-19T00:31:47.537Z,57.50
2023-01-19T00:36:53.106Z,57.50
2023-01-19T00:42:16.059Z,57.50
2023-01-19T00:47:20.094Z,57.50
2023-01-19T00:52:24.114Z,57.30
2023-01-19T00:57:30.102Z,56.90
2023-01-19T01:02:34.538Z,57.00
2023-01-19T01:07:44.743Z,57.10
2023-01-19T01:12:56.783Z,56.80
2023-01-19T01:18:03.534Z,56.70
2023-01-19T01:23:07.662Z,56.00
2023-01-19T01:28:11.795Z,55.90
2023-01-19T01:33:16.121Z,55.40
2023-01-19T01:38:41.707Z,55.20
2023-01-19T01:43:50.188Z,54.50
2023-01-19T01:49:04.963Z,54.60
2023-01-19T01:54:17.730Z,55.00
2023-01-19T01:59:35.039Z,54.50
2023-01-19T02:04:41.615Z,54.70
2023-01-19T02:10:04.519Z,53.60
2023-01-19T02:15:20.555Z,53.70
2023-01-19T02:20:28.265Z,53.80
2023-01-19T02:25:33.071Z,53.50
2023-01-19T02:30:40.486Z,54.00
2023-01-19T02:35:46.293Z,53.80
2023-01-19T02:40:51.080Z,53.80
2023-01-19T02:45:56.415Z,53.70
2023-01-19T02:51:04.974Z,54.10
2023-01-19T02:56:27.654Z,53.60
2023-01-19T03:01:38.560Z,53.60
2023-01-19T03:06:42.982Z,53.50
2023-01-19T03:11:54.480Z,53.90
2023-01-19T03:17:03.690Z,53.50
2023-01-19T03:22:13.741Z,53.40
2023-01-19T03:27:30.324Z,53.50
2023-01-19T03:32:43.833Z,53.60
2023-01-19T03:37:51.073Z,54.20
2023-01-19T03:42:56.121Z,54.30
2023-01-19T03:48:00.575Z,54.60
2023-01-19T03:53:13.357Z,55.10
2023-01-19T03:58:17.838Z,55.00
2023-01-19T04:03:21.778Z,54.60
2023-01-19T04:08:26.017Z,55.00
2023-01-19T04:13:30.875Z,55.10
2023-01-19T04:18:35.095Z,55.30
2023-01-19T04:23:39.033Z,55.60
2023-01-19T04:28:43.400Z,55.90
2023-01-19T04:33:47.187Z,56.50
2023-01-19T04:38:51.524Z,56.10
2023-01-19T04:43:55.447Z,56.30
2023-01-19T04:48:59.598Z,56.30
2023-01-19T04:54:04.522Z,56.40
2023-01-19T04:59:08.703Z,56.40
2023-01-19T05:04:13.169Z,57.10
2023-01-19T05:09:17.360Z,56.50
2023-01-19T05:14:21.414Z,56.50
2023-01-19T05:19:25.534Z,56.50
2023-01-19T05:24:29.978Z,56.80
2023-01-19T05:29:34.823Z,56.50
2023-01-19T05:34:38.762Z,56.50
2023-01-19T05:39:42.894Z,56.50
2023-01-19T05:44:47.342Z,56.00
2023-01-19T05:49:51.578Z,55.20
2023-01-19T05:54:56.064Z,54.80
2023-01-19T06:00:00.133Z,54.20
2023-01-19T06:05:04.904Z,53.60
2023-01-19T06:10:10.278Z,53.70
2023-01-19T06:15:15.895Z,54.00
2023-01-19T06:20:19.963Z,53.60
2023-01-19T06:25:24.202Z,53.50
2023-01-19T06:30:29.458Z,53.70
2023-01-19T06:35:33.396Z,53.30
2023-01-19T06:40:37.441Z,53.20
2023-01-19T06:45:41.583Z,53.00
2023-01-19T06:50:46.194Z,53.10
2023-01-19T06:55:50.337Z,53.10
2023-01-19T07:00:55.060Z,53.30
2023-01-19T07:06:03.877Z,53.40
2023-01-19T07:11:25.188Z,53.10
2023-01-19T07:16:34.298Z,53.00
2023-01-19T07:21:38.554Z,53.70
2023-01-19T07:26:43.000Z,54.40
2023-01-19T07:31:49.356Z,54.20
2023-01-19T07:36:53.541Z,55.30
2023-01-19T07:41:57.542Z,54.60
2023-01-19T07:47:01.707Z,54.20
2023-01-19T07:52:06.365Z,54.20
2023-01-19T07:57:10.323Z,54.60
2023-01-19T08:02:16.452Z,55.20
2023-01-19T08:07:21.263Z,54.80
2023-01-19T08:12:25.402Z,55.10
2023-01-19T08:17:29.462Z,55.00
2023-01-19T08:22:33.607Z,55.00
2023-01-19T08:27:37.498Z,55.00
2023-01-19T08:32:41.321Z,54.80
2023-01-19T08:37:45.243Z,54.80
2023-01-19T08:42:49.501Z,54.70
2023-01-19T08:47:55.475Z,54.80
2023-01-19T08:53:02.484Z,54.70
2023-01-19T08:58:08.945Z,54.60
2023-01-19T09:03:14.291Z,54.50
2023-01-19T09:08:18.381Z,54.40
2023-01-19T09:13:22.927Z,54.30
2023-01-19T09:18:27.383Z,54.20
2023-01-19T09:23:32.094Z,54.10
2023-01-19T09:28:36.021Z,54.20
2023-01-19T09:33:40.161Z,54.10
2023-01-19T09:38:44.301Z,54.30
2023-01-19T09:43:59.592Z,53.90
2023-01-19T09:49:12.310Z,52.70
2023-01-19T09:54:18.093Z,51.90
2023-01-19T09:59:29.305Z,51.20
2023-01-19T10:04:42.032Z,51.00
2023-01-19T10:09:50.995Z,50.40
2023-01-19T10:15:13.029Z,49.90
2023-01-19T10:20:23.402Z,49.90
2023-01-19T10:25:28.083Z,49.20
2023-01-19T10:30:32.187Z,49.00
2023-01-19T10:35:36.925Z,49.10
2023-01-19T10:40:51.328Z,48.60
2023-01-19T10:45:55.556Z,49.00
2023-01-19T10:51:05.102Z,48.70
2023-01-19T10:56:24.198Z,49.20
2023-01-19T11:01:30.959Z,49.00
2023-01-19T11:06:36.137Z,49.10
2023-01-19T11:11:49.615Z,49.20
2023-01-19T11:16:55.963Z,49.30
2023-01-19T11:22:16.861Z,49.20
2023-01-19T11:27:21.735Z,49.20
2023-01-19T11:32:28.516Z,49.10
2023-01-19T11:37:34.997Z,49.10
2023-01-19T11:42:39.139Z,49.30
2023-01-19T11:47:55.366Z,49.50
2023-01-19T11:53:17.696Z,49.50
2023-01-19T11:58:22.475Z,49.50
2023-01-19T12:03:33.232Z,49.50
2023-01-19T12:08:44.834Z,49.40
2023-01-19T12:13:49.668Z,49.30
2023-01-19T12:19:13.977Z,49.20
2023-01-19T12:24:38.064Z,49.20
2023-01-19T12:29:42.968Z,49.60
2023-01-19T12:34:55.150Z,49.50
2023-01-19T12:40:29.157Z,49.70
2023-01-19T12:45:39.990Z,49.60
2023-01-19T12:50:46.779Z,49.70
2023-01-19T12:56:01.516Z,49.60
2023-01-19T13:01:19.388Z,50.10
2023-01-19T13:06:49.397Z,49.70
2023-01-19T13:12:15.415Z,49.60
2023-01-19T13:17:50.153Z,49.20
2023-01-19T13:23:06.454Z,49.20
2023-01-19T13:28:12.439Z,49.30
2023-01-19T13:33:22.777Z,49.50
2023-01-19T13:38:28.469Z,49.10
2023-01-19T13:43:38.356Z,49.00
2023-01-19T13:48:54.925Z,49.00
2023-01-19T13:54:02.006Z,48.90
2023-01-19T13:59:12.226Z,49.00
2023-01-19T14:04:34.032Z,49.00
2023-01-19T14:09:38.374Z,49.10
2023-01-19T14:14:44.008Z,49.30
2023-01-19T14:19:53.107Z,49.70
2023-01-19T14:25:29.208Z,51.50
2023-01-19T14:30:36.351Z,51.50
2023-01-19T14:35:40.954Z,51.50
2023-01-19T14:40:45.514Z,51.50
2023-01-19T14:45:49.834Z,51.60
2023-01-19T14:51:03.639Z,51.70
2023-01-19T14:56:08.246Z,51.60
2023-01-19T15:01:12.465Z,51.80
2023-01-19T15:06:19.373Z,51.60
2023-01-19T15:11:30.276Z,51.70
2023-01-19T15:16:35.111Z,51.80
2023-01-19T15:21:42.555Z,51.70
2023-01-19T15:26:47.179Z,51.60
2023-01-19T15:31:52.579Z,51.60
2023-01-19T15:36:56.883Z,51.40
2023-01-19T15:42:01.414Z,51.30
2023-01-19T15:47:05.817Z,51.20
2023-01-19T15:52:10.173Z,50.70
2023-01-19T15:57:14.044Z,49.10
2023-01-19T16:02:18.861Z,48.10
2023-01-19T16:07:23.176Z,47.90
2023-01-19T16:12:28.704Z,47.80
2023-01-19T16:17:32.801Z,47.70
2023-01-19T16:22:38.369Z,48.30
2023-01-19T16:27:43.973Z,48.20
2023-01-19T16:32:48.121Z,48.20
2023-01-19T16:37:52.500Z,47.80
2023-01-19T16:42:56.430Z,47.30
2023-01-19T16:48:00.724Z,46.60
2023-01-19T16:53:04.945Z,45.90
2023-01-19T16:58:09.161Z,45.90
2023-01-19T17:03:13.800Z,46.10
2023-01-19T17:08:23.127Z,46.50
2023-01-19T17:13:27.842Z,46.60
2023-01-19T17:18:39.146Z,46.20
2023-01-19T17:23:47.441Z,46.20
2023-01-19T17:28:52.986Z,47.00
2023-01-19T17:33:59.819Z,47.50
2023-01-19T17:39:07.807Z,47.00
2023-01-19T17:51:10.658Z,47.10
2023-01-19T17:56:17.691Z,47.00
2023-01-19T18:01:27.867Z,47.70
2023-01-19T18:06:35.764Z,47.40
2023-01-19T18:11:50.795Z,47.80
2023-01-19T18:16:56.382Z,47.80
2023-01-19T18:22:02.554Z,47.90
2023-01-19T18:27:08.675Z,48.30
2023-01-19T18:32:15.602Z,48.50
2023-01-19T18:37:24.923Z,49.00
2023-01-19T18:42:31.293Z,49.40
2023-01-19T18:47:45.523Z,49.80
2023-01-19T18:52:52.474Z,49.60
2023-01-19T18:57:58.617Z,50.00
2023-01-19T19:03:11.240Z,50.40
2023-01-19T19:08:19.081Z,50.30
2023-01-19T19:13:25.193Z,50.40
2023-01-19T19:18:34.683Z,50.50
2023-01-19T19:23:40.674Z,50.30
2023-01-19T19:28:48.362Z,49.40
2023-01-19T19:33:57.606Z,48.90
2023-01-19T19:39:06.378Z,48.70
2023-01-19T19:44:22.359Z,49.00
2023-01-19T19:49:29.053Z,49.00
2023-01-19T19:54:35.073Z,48.80
2023-01-19T19:59:42.475Z,48.60
2023-01-19T20:04:48.943Z,48.40
2023-01-19T20:09:57.854Z,49.20
2023-01-19T20:15:03.957Z,49.70
2023-01-19T20:20:10.217Z,52.80
2023-01-19T20:25:19.040Z,52.60
2023-01-19T20:30:27.411Z,51.10
2023-01-19T20:35:33.206Z,50.60
2023-01-19T20:40:39.194Z,51.80
2023-01-19T20:45:46.044Z,51.10
2023-01-19T20:50:51.955Z,52.00
2023-01-19T20:55:59.724Z,51.80
2023-01-19T21:01:16.791Z,51.90
2023-01-19T21:06:22.978Z,52.40
2023-01-19T21:11:28.851Z,52.90
2023-01-19T21:16:36.923Z,52.60
2023-01-19T21:21:44.701Z,53.20
2023-01-19T21:26:49.919Z,53.10
2023-01-19T21:31:54.195Z,53.50
2023-01-19T21:36:58.939Z,53.30
2023-01-19T21:42:02.870Z,54.20
2023-01-19T21:47:10.230Z,55.60
2023-01-19T21:52:14.431Z,55.90
2023-01-19T21:57:20.027Z,55.80
2023-01-19T22:02:37.627Z,55.70
2023-01-19T22:07:42.476Z,55.60
2023-01-19T22:12:52.555Z,55.50
2023-01-19T22:17:56.589Z,55.50
2023-01-19T22:23:00.746Z,55.80
2023-01-19T22:28:04.848Z,55.80
2023-01-19T22:33:08.822Z,55.40
2023-01-19T22:38:12.925Z,55.40
2023-01-19T22:43:17.105Z,54.70
2023-01-19T22:48:22.837Z,54.30
2023-01-19T22:53:27.066Z,54.50
2023-01-19T22:58:30.885Z,53.00
2023-01-19T23:03:35.905Z,52.60
2023-01-19T23:08:41.111Z,52.20
2023-01-19T23:13:46.240Z,51.80
2023-01-19T23:18:53.767Z,52.90
2023-01-19T23:24:00.706Z,52.70
2023-01-19T23:29:08.704Z,53.30
2023-01-19T23:34:13.960Z,54.50
2023-01-19T23:39:21.481Z,54.50
2023-01-19T23:44:25.823Z,54.60
2023-01-19T23:49:29.906Z,54.60
2023-01-19T23:54:33.971Z,54.20
2023-01-19T23:59:38.010Z,54.20
